createdAt,value
2019-05-28T00:00:13.592Z,13.10
2019-05-28T00:02:42.249Z,13.00
2019-05-28T00:05:10.977Z,13.00
2019-05-28T00:07:39.701Z,13.00
2019-05-28T00:10:09.083Z,13.00
2019-05-28T00:12:38.001Z,12.90
2019-05-28T00:15:07.418Z,12.90
2019-05-28T00:17:36.074Z,12.80
2019-05-28T00:20:07.865Z,12.80
2019-05-28T00:22:36.509Z,12.80
2019-05-28T00:25:06.722Z,12.70
2019-05-28T00:27:35.464Z,12.70
2019-05-28T00:30:19.244Z,12.60
2019-05-28T00:32:39.111Z,12.60
2019-05-28T00:35:08.250Z,12.60
2019-05-28T00:37:36.930Z,12.50
2019-05-28T00:40:06.219Z,12.50
2019-05-28T00:42:34.898Z,12.50
2019-05-28T00:45:04.153Z,12.40
2019-05-28T00:47:32.664Z,12.40
2019-05-28T00:50:01.381Z,12.40
2019-05-28T00:52:30.314Z,12.40
2019-05-28T00:54:58.938Z,12.40
2019-05-28T00:57:27.980Z,12.40
2019-05-28T00:59:57.293Z,12.50
2019-05-28T01:02:26.215Z,12.50
2019-05-28T01:04:54.816Z,12.60
2019-05-28T01:07:23.458Z,12.60
2019-05-28T01:09:52.190Z,12.60
2019-05-28T01:12:20.855Z,12.60
2019-05-28T01:14:49.398Z,12.70
2019-05-28T01:17:17.962Z,12.70
2019-05-28T01:19:46.823Z,12.60
2019-05-28T01:22:15.454Z,12.60
2019-05-28T01:24:44.050Z,12.60
2019-05-28T01:27:12.696Z,12.60
2019-05-28T01:29:41.290Z,12.60
2019-05-28T01:32:09.925Z,12.50
2019-05-28T01:34:39.006Z,12.50
2019-05-28T01:37:07.554Z,12.50
2019-05-28T01:39:36.199Z,12.50
2019-05-28T01:42:04.933Z,12.50
2019-05-28T01:44:33.508Z,12.40
2019-05-28T01:47:02.093Z,12.40
2019-05-28T01:49:30.662Z,12.40
2019-05-28T01:51:59.263Z,12.40
2019-05-28T01:54:27.864Z,12.30
2019-05-28T01:56:56.698Z,12.30
2019-05-28T01:59:25.286Z,12.30
2019-05-28T02:01:54.007Z,12.30
2019-05-28T02:04:22.574Z,12.20
2019-05-28T02:06:51.226Z,12.10
2019-05-28T02:09:19.849Z,12.20
2019-05-28T02:11:48.438Z,12.20
2019-05-28T02:14:17.012Z,12.10
2019-05-28T02:16:45.588Z,12.10
2019-05-28T02:19:14.152Z,12.00
2019-05-28T02:21:42.760Z,12.00
2019-05-28T02:24:11.328Z,12.00
2019-05-28T02:26:40.046Z,11.90
2019-05-28T02:29:08.606Z,11.90
2019-05-28T02:31:37.245Z,11.90
2019-05-28T02:34:05.830Z,11.90
2019-05-28T02:36:34.472Z,11.90
2019-05-28T02:39:03.122Z,11.90
2019-05-28T02:41:31.968Z,11.80
2019-05-28T02:44:00.552Z,11.80
2019-05-28T02:46:29.114Z,11.80
2019-05-28T02:48:58.054Z,11.80
2019-05-28T02:51:26.902Z,11.80
2019-05-28T02:53:55.913Z,11.70
2019-05-28T02:56:26.444Z,11.70
2019-05-28T02:58:57.529Z,11.70
2019-05-28T03:01:42.757Z,11.60
2019-05-28T03:03:57.881Z,11.60
2019-05-28T03:06:28.393Z,11.50
2019-05-28T03:08:57.334Z,11.50
2019-05-28T03:11:26.171Z,11.50
2019-05-28T03:13:55.300Z,11.40
2019-05-28T03:16:27.259Z,11.40
2019-05-28T03:18:58.058Z,11.40
2019-05-28T03:21:27.363Z,11.40
2019-05-28T03:23:59.162Z,11.40
2019-05-28T03:26:28.187Z,11.40
2019-05-28T03:28:57.349Z,11.40
2019-05-28T03:31:25.962Z,11.40
2019-05-28T03:33:54.724Z,11.40
2019-05-28T03:36:27.073Z,11.40
2019-05-28T03:38:57.482Z,11.40
2019-05-28T03:41:26.056Z,11.40
2019-05-28T03:43:54.924Z,11.40
2019-05-28T03:46:23.805Z,11.40
2019-05-28T03:48:52.363Z,11.30
2019-05-28T03:51:21.010Z,11.30
2019-05-28T03:53:49.589Z,11.30
2019-05-28T03:56:18.689Z,11.40
2019-05-28T03:58:47.255Z,11.40
2019-05-28T04:01:15.921Z,11.40
2019-05-28T04:03:44.567Z,11.40
2019-05-28T04:06:13.176Z,11.50
2019-05-28T04:08:42.119Z,11.50
2019-05-28T04:11:10.724Z,11.60
2019-05-28T04:13:39.302Z,11.60
2019-05-28T04:16:07.890Z,11.60
2019-05-28T04:18:36.523Z,11.70
2019-05-28T04:21:05.264Z,11.70
2019-05-28T04:23:33.857Z,11.70
2019-05-28T04:26:02.579Z,11.80
2019-05-28T04:28:31.507Z,11.80
2019-05-28T04:31:00.098Z,11.80
2019-05-28T04:33:28.656Z,11.90
2019-05-28T04:35:57.273Z,11.90
2019-05-28T04:38:25.803Z,12.00
2019-05-28T04:40:54.390Z,12.10
2019-05-28T04:43:22.959Z,12.10
2019-05-28T04:45:51.547Z,12.10
2019-05-28T04:48:20.209Z,12.20
2019-05-28T04:50:48.800Z,12.30
2019-05-28T04:53:17.454Z,12.30
2019-05-28T04:55:46.001Z,12.40
2019-05-28T04:58:14.581Z,12.50
2019-05-28T05:00:43.208Z,12.60
2019-05-28T05:03:11.794Z,12.70
2019-05-28T05:05:40.661Z,12.80
2019-05-28T05:08:09.237Z,12.90
2019-05-28T05:10:37.786Z,12.90
2019-05-28T05:13:06.373Z,13.00
2019-05-28T05:15:35.344Z,13.10
2019-05-28T05:18:04.313Z,13.20
2019-05-28T05:20:33.347Z,13.30
2019-05-28T05:23:01.957Z,13.40
2019-05-28T05:25:30.683Z,13.60
2019-05-28T05:27:59.605Z,13.80
2019-05-28T05:30:28.211Z,14.00
2019-05-28T05:32:57.099Z,14.10
2019-05-28T05:35:26.164Z,14.20
2019-05-28T05:37:54.758Z,14.30
2019-05-28T05:40:23.989Z,14.50
2019-05-28T05:42:52.639Z,14.60
2019-05-28T05:45:21.351Z,14.70
2019-05-28T05:47:49.979Z,14.80
2019-05-28T05:50:18.717Z,14.90
2019-05-28T05:52:47.290Z,15.00
2019-05-28T05:55:16.319Z,15.00
2019-05-28T05:57:44.954Z,15.00
2019-05-28T06:00:15.365Z,15.10
2019-05-28T06:02:43.990Z,15.00
2019-05-28T06:05:13.016Z,15.20
2019-05-28T06:07:41.600Z,15.20
2019-05-28T06:10:10.387Z,15.20
2019-05-28T06:12:38.939Z,15.20
2019-05-28T06:15:08.368Z,15.20
2019-05-28T06:17:37.022Z,15.20
2019-05-28T06:20:07.669Z,15.10
2019-05-28T06:22:36.731Z,14.90
2019-05-28T06:25:06.466Z,14.40
2019-05-28T06:27:36.291Z,14.20
2019-05-28T06:30:08.067Z,14.10
2019-05-28T06:32:38.293Z,13.70
2019-05-28T06:35:07.760Z,13.30
2019-05-28T06:37:36.361Z,13.10
2019-05-28T06:40:07.397Z,12.90
2019-05-28T06:42:39.264Z,12.60
2019-05-28T06:45:08.333Z,12.40
2019-05-28T06:47:37.028Z,12.30
2019-05-28T06:50:12.143Z,12.10
2019-05-28T06:52:41.208Z,12.00
2019-05-28T06:55:11.118Z,11.90
2019-05-28T06:57:39.702Z,11.80
2019-05-28T07:00:09.955Z,11.80
2019-05-28T07:02:38.494Z,11.80
2019-05-28T07:05:07.262Z,11.80
2019-05-28T07:07:35.922Z,11.80
2019-05-28T07:10:05.946Z,11.80
2019-05-28T07:12:34.588Z,11.90
2019-05-28T07:15:03.639Z,11.90
2019-05-28T07:17:32.336Z,12.10
2019-05-28T07:20:01.250Z,12.20
2019-05-28T07:22:29.951Z,12.40
2019-05-28T07:24:58.532Z,12.60
2019-05-28T07:27:27.094Z,12.80
2019-05-28T07:29:55.764Z,13.10
2019-05-28T07:32:24.320Z,13.30
2019-05-28T07:34:52.979Z,13.50
2019-05-28T07:37:21.595Z,13.90
2019-05-28T07:39:50.184Z,14.20
2019-05-28T07:42:31.846Z,14.50
2019-05-28T07:44:48.972Z,14.60
2019-05-28T07:47:17.561Z,14.90
2019-05-28T07:49:46.564Z,15.10
2019-05-28T07:52:15.447Z,15.20
2019-05-28T07:54:44.003Z,15.40
2019-05-28T07:57:12.941Z,15.60
2019-05-28T07:59:41.836Z,15.70
2019-05-28T08:02:10.468Z,15.80
2019-05-28T08:04:47.321Z,16.00
2019-05-28T08:07:09.360Z,16.00
2019-05-28T08:09:38.026Z,16.10
2019-05-28T08:12:06.747Z,16.10
2019-05-28T08:14:35.380Z,16.10
2019-05-28T08:17:04.045Z,16.20
2019-05-28T08:19:32.723Z,16.30
2019-05-28T08:22:01.999Z,16.30
2019-05-28T08:24:30.551Z,16.40
2019-05-28T08:26:59.473Z,16.40
2019-05-28T08:29:28.041Z,16.40
2019-05-28T08:31:56.629Z,16.40
2019-05-28T08:34:25.576Z,16.30
2019-05-28T08:37:05.060Z,16.30
2019-05-28T08:39:24.433Z,16.40
2019-05-28T08:41:53.059Z,16.50
2019-05-28T08:44:21.704Z,16.60
2019-05-28T08:46:51.686Z,16.70
2019-05-28T08:49:23.822Z,16.80
2019-05-28T08:51:50.523Z,16.90
2019-05-28T08:54:19.097Z,17.00
2019-05-28T08:56:48.057Z,17.20
2019-05-28T08:59:16.610Z,17.40
2019-05-28T09:01:45.205Z,17.60
2019-05-28T09:04:13.855Z,17.70
2019-05-28T09:06:42.463Z,17.90
2019-05-28T09:09:11.524Z,17.90
2019-05-28T09:11:40.163Z,18.00
2019-05-28T09:14:08.750Z,18.00
2019-05-28T09:16:37.401Z,18.20
2019-05-28T09:19:06.110Z,18.30
2019-05-28T09:21:34.688Z,18.40
2019-05-28T09:24:03.403Z,18.50
2019-05-28T09:26:32.114Z,18.70
2019-05-28T09:29:00.785Z,18.90
2019-05-28T09:31:29.427Z,19.00
2019-05-28T09:33:58.013Z,19.20
2019-05-28T09:36:27.101Z,19.20
2019-05-28T09:38:55.683Z,19.30
2019-05-28T09:41:24.400Z,19.40
2019-05-28T09:43:53.376Z,19.40
2019-05-28T09:46:21.952Z,19.30
2019-05-28T09:48:50.519Z,19.30
2019-05-28T09:51:19.186Z,19.30
2019-05-28T09:53:47.741Z,19.10
2019-05-28T09:56:16.329Z,19.00
2019-05-28T09:58:44.943Z,19.00
2019-05-28T10:01:13.782Z,19.00
2019-05-28T10:03:42.798Z,19.10
2019-05-28T10:06:16.888Z,19.30
2019-05-28T10:08:41.627Z,19.40
2019-05-28T10:11:10.262Z,19.50
2019-05-28T10:13:41.466Z,19.60
2019-05-28T10:16:09.467Z,19.70
2019-05-28T10:18:38.003Z,19.80
2019-05-28T10:21:17.537Z,19.90
2019-05-28T10:23:36.871Z,20.10
2019-05-28T10:26:05.843Z,20.10
2019-05-28T10:28:34.857Z,20.20
2019-05-28T10:31:03.439Z,20.30
2019-05-28T10:33:31.992Z,20.40
2019-05-28T10:36:00.579Z,20.60
2019-05-28T10:38:29.148Z,20.80
2019-05-28T10:40:57.823Z,20.80
2019-05-28T10:43:26.457Z,20.80
2019-05-28T10:45:55.083Z,20.80
2019-05-28T10:48:23.605Z,20.80
2019-05-28T10:50:52.197Z,20.90
2019-05-28T10:53:20.824Z,20.60
2019-05-28T10:55:49.429Z,20.60
2019-05-28T10:58:18.143Z,20.60
2019-05-28T11:00:46.741Z,20.60
2019-05-28T11:03:15.298Z,20.60
2019-05-28T11:05:44.273Z,20.50
2019-05-28T11:08:12.827Z,20.60
2019-05-28T11:10:41.403Z,20.70
2019-05-28T11:13:10.439Z,20.70
2019-05-28T11:15:39.053Z,20.60
2019-05-28T11:18:07.630Z,21.00
2019-05-28T11:20:36.346Z,21.10
2019-05-28T11:23:05.072Z,21.20
2019-05-28T11:25:33.749Z,21.30
2019-05-28T11:28:02.435Z,21.20
2019-05-28T11:30:31.125Z,21.10
2019-05-28T11:32:59.780Z,21.10
2019-05-28T11:35:28.724Z,21.20
2019-05-28T11:37:57.652Z,21.10
2019-05-28T11:40:29.795Z,21.30
2019-05-28T11:42:56.617Z,21.10
2019-05-28T11:45:25.334Z,21.30
2019-05-28T11:47:53.969Z,21.70
2019-05-28T11:50:22.688Z,22.00
2019-05-28T11:52:51.264Z,22.00
2019-05-28T11:55:21.616Z,22.00
2019-05-28T11:57:50.136Z,22.00
2019-05-28T12:00:19.733Z,21.90
2019-05-28T12:02:48.439Z,21.70
2019-05-28T12:05:19.053Z,21.50
2019-05-28T12:07:51.357Z,21.40
2019-05-28T12:10:18.582Z,21.30
2019-05-28T12:12:47.194Z,21.40
2019-05-28T12:15:17.719Z,21.50
2019-05-28T12:17:47.093Z,21.90
2019-05-28T12:20:18.006Z,22.10
2019-05-28T12:22:46.745Z,22.20
2019-05-28T12:25:16.663Z,22.20
2019-05-28T12:27:45.234Z,22.20
2019-05-28T12:30:18.529Z,22.00
2019-05-28T12:32:46.388Z,22.00
2019-05-28T12:35:27.303Z,22.00
2019-05-28T12:37:49.797Z,22.40
2019-05-28T12:40:18.382Z,22.30
2019-05-28T12:42:46.998Z,22.20
2019-05-28T12:45:16.823Z,22.30
2019-05-28T12:48:04.430Z,22.30
2019-05-28T12:50:20.292Z,22.20
2019-05-28T12:52:47.897Z,22.50
2019-05-28T12:55:17.950Z,22.40
2019-05-28T12:57:46.604Z,22.40
2019-05-28T13:00:16.028Z,22.50
2019-05-28T13:02:44.680Z,22.30
2019-05-28T13:05:18.777Z,22.30
2019-05-28T13:08:06.353Z,22.20
2019-05-28T13:10:18.712Z,22.60
2019-05-28T13:12:47.454Z,22.70
2019-05-28T13:15:16.140Z,22.50
2019-05-28T13:17:44.719Z,22.40
2019-05-28T13:20:13.736Z,22.00
2019-05-28T13:22:42.533Z,21.70
2019-05-28T13:25:11.546Z,21.40
2019-05-28T13:27:40.478Z,21.00
2019-05-28T13:30:13.772Z,20.60
2019-05-28T13:32:42.999Z,20.30
2019-05-28T13:35:13.020Z,20.10
2019-05-28T13:37:41.628Z,19.90
2019-05-28T13:40:11.670Z,19.90
2019-05-28T13:42:40.574Z,19.90
2019-05-28T13:45:11.237Z,19.80
2019-05-28T13:47:39.791Z,19.70
2019-05-28T13:50:11.834Z,19.50
2019-05-28T13:52:40.948Z,19.50
2019-05-28T13:55:10.868Z,20.60
2019-05-28T13:57:40.020Z,22.70
2019-05-28T14:00:11.681Z,24.80
2019-05-28T14:02:45.706Z,26.50
2019-05-28T14:05:12.000Z,27.70
2019-05-28T14:07:40.686Z,27.70
2019-05-28T14:10:10.121Z,27.80
2019-05-28T14:12:38.816Z,27.10
2019-05-28T14:15:08.338Z,26.50
2019-05-28T14:17:36.991Z,26.00
2019-05-28T14:20:10.589Z,26.10
2019-05-28T14:22:39.248Z,27.50
2019-05-28T14:25:09.549Z,28.20
2019-05-28T14:27:38.206Z,27.70
2019-05-28T14:30:09.175Z,27.90
2019-05-28T14:32:38.323Z,28.80
2019-05-28T14:35:07.248Z,28.50
2019-05-28T14:37:35.937Z,28.00
2019-05-28T14:40:06.315Z,27.90
2019-05-28T14:42:35.044Z,29.00
2019-05-28T14:45:05.153Z,30.80
2019-05-28T14:47:33.781Z,32.60
2019-05-28T14:50:02.392Z,33.70
2019-05-28T14:52:31.051Z,34.40
2019-05-28T14:54:59.622Z,34.50
2019-05-28T14:57:28.220Z,35.50
2019-05-28T14:59:56.785Z,36.60
2019-05-28T15:02:25.681Z,37.90
2019-05-28T15:04:54.269Z,39.00
2019-05-28T15:07:22.835Z,39.80
2019-05-28T15:09:51.414Z,39.00
2019-05-28T15:12:19.996Z,38.10
2019-05-28T15:14:48.574Z,36.60
2019-05-28T15:17:17.174Z,35.20
2019-05-28T15:19:45.863Z,33.50
2019-05-28T15:22:14.448Z,32.00
2019-05-28T15:24:43.083Z,30.80
2019-05-28T15:27:11.774Z,29.60
2019-05-28T15:29:40.360Z,28.50
2019-05-28T15:32:08.932Z,27.50
2019-05-28T15:34:37.491Z,26.60
2019-05-28T15:37:06.121Z,26.00
2019-05-28T15:39:39.669Z,25.30
2019-05-28T15:42:05.368Z,24.50
2019-05-28T15:44:33.922Z,23.90
2019-05-28T15:47:02.500Z,23.40
2019-05-28T15:49:31.058Z,22.80
2019-05-28T15:52:07.814Z,22.40
2019-05-28T15:54:29.933Z,21.90
2019-05-28T15:56:58.568Z,21.50
2019-05-28T15:59:27.240Z,21.10
2019-05-28T16:01:55.783Z,20.80
2019-05-28T16:04:24.353Z,20.60
2019-05-28T16:06:52.910Z,20.40
2019-05-28T16:09:21.506Z,20.40
2019-05-28T16:11:50.068Z,20.40
2019-05-28T16:14:18.731Z,20.90
2019-05-28T16:16:47.294Z,22.50
2019-05-28T16:19:15.889Z,23.70
2019-05-28T16:21:44.446Z,24.20
2019-05-28T16:24:13.017Z,24.30
2019-05-28T16:26:41.577Z,24.30
2019-05-28T16:29:10.263Z,24.30
2019-05-28T16:31:38.806Z,24.40
2019-05-28T16:34:07.466Z,24.40
2019-05-28T16:36:36.023Z,24.70
2019-05-28T16:39:07.747Z,25.70
2019-05-28T16:41:36.666Z,26.70
2019-05-28T16:44:06.495Z,27.20
2019-05-28T16:46:35.121Z,27.80
2019-05-28T16:49:03.682Z,28.40
2019-05-28T16:51:32.293Z,28.70
2019-05-28T16:54:17.819Z,28.80
2019-05-28T16:56:31.117Z,29.30
2019-05-28T16:59:00.070Z,29.90
2019-05-28T17:01:28.655Z,29.80
2019-05-28T17:03:57.194Z,29.30
2019-05-28T17:06:25.919Z,28.50
2019-05-28T17:08:54.484Z,27.60
2019-05-28T17:11:27.318Z,26.90
2019-05-28T17:13:53.364Z,26.00
2019-05-28T17:16:21.954Z,25.20
2019-05-28T17:18:50.526Z,24.70
2019-05-28T17:21:19.193Z,24.60
2019-05-28T17:23:47.768Z,24.60
2019-05-28T17:26:16.533Z,24.50
2019-05-28T17:28:45.445Z,24.20
2019-05-28T17:31:14.013Z,23.90
2019-05-28T17:33:42.948Z,23.30
2019-05-28T17:36:11.501Z,22.60
2019-05-28T17:38:40.127Z,21.90
2019-05-28T17:41:08.692Z,21.30
2019-05-28T17:43:37.266Z,20.70
2019-05-28T17:46:05.925Z,20.10
2019-05-28T17:48:34.788Z,19.70
2019-05-28T17:51:03.337Z,19.40
2019-05-28T17:53:32.012Z,19.10
2019-05-28T17:56:00.563Z,18.80
2019-05-28T17:58:31.139Z,18.80
2019-05-28T18:00:59.777Z,18.60
2019-05-28T18:03:28.361Z,18.50
2019-05-28T18:05:57.023Z,18.30
2019-05-28T18:08:29.225Z,18.10
2019-05-28T18:11:04.510Z,17.80
2019-05-28T18:13:28.488Z,17.60
2019-05-28T18:15:56.350Z,17.40
2019-05-28T18:18:24.916Z,17.40
2019-05-28T18:20:53.563Z,17.20
2019-05-28T18:23:22.139Z,17.20
2019-05-28T18:25:50.709Z,17.10
2019-05-28T18:28:19.347Z,17.10
2019-05-28T18:30:47.928Z,16.90
2019-05-28T18:33:16.520Z,16.80
2019-05-28T18:35:45.155Z,16.70
2019-05-28T18:38:13.710Z,16.60
2019-05-28T18:40:42.282Z,16.40
2019-05-28T18:43:10.860Z,16.40
2019-05-28T18:45:39.550Z,16.30
2019-05-28T18:48:08.164Z,16.10
2019-05-28T18:50:36.743Z,16.00
2019-05-28T18:53:05.736Z,15.90
2019-05-28T18:55:34.486Z,15.80
2019-05-28T18:58:03.270Z,15.60
2019-05-28T19:00:31.861Z,15.50
2019-05-28T19:03:00.452Z,15.40
2019-05-28T19:05:29.397Z,15.20
2019-05-28T19:07:57.978Z,15.10
2019-05-28T19:10:26.602Z,14.90
2019-05-28T19:12:58.144Z,14.80
2019-05-28T19:15:25.631Z,14.70
2019-05-28T19:17:54.241Z,14.60
2019-05-28T19:20:23.161Z,14.40
2019-05-28T19:22:52.158Z,14.30
2019-05-28T19:25:20.894Z,14.20
2019-05-28T19:27:49.510Z,14.10
2019-05-28T19:30:21.411Z,13.90
2019-05-28T19:32:50.468Z,13.80
2019-05-28T19:35:19.086Z,13.70
2019-05-28T19:37:48.128Z,13.60
2019-05-28T19:40:20.051Z,13.40
2019-05-28T19:42:48.627Z,13.30
2019-05-28T19:45:17.276Z,13.30
2019-05-28T19:47:45.784Z,13.20
2019-05-28T19:50:14.539Z,13.10
2019-05-28T19:52:43.090Z,12.90
2019-05-28T19:55:12.213Z,12.90
2019-05-28T19:57:40.790Z,12.70
2019-05-28T20:00:10.130Z,12.70
2019-05-28T20:02:38.696Z,12.60
2019-05-28T20:05:08.413Z,12.60
2019-05-28T20:07:37.020Z,12.40
2019-05-28T20:10:07.008Z,12.40
2019-05-28T20:12:35.683Z,12.30
2019-05-28T20:15:09.624Z,12.20
2019-05-28T20:17:38.351Z,12.10
2019-05-28T20:20:07.682Z,12.10
2019-05-28T20:22:36.378Z,12.00
2019-05-28T20:25:08.731Z,11.90
2019-05-28T20:27:37.483Z,11.80
2019-05-28T20:30:09.405Z,11.70
2019-05-28T20:32:38.220Z,11.60
2019-05-28T20:35:09.661Z,11.60
2019-05-28T20:37:38.428Z,11.50
2019-05-28T20:40:10.234Z,11.40
2019-05-28T20:42:39.081Z,11.30
2019-05-28T20:45:09.159Z,11.30
2019-05-28T20:47:37.973Z,11.20
2019-05-28T20:50:09.420Z,11.20
2019-05-28T20:52:38.268Z,11.10
2019-05-28T20:55:07.523Z,11.10
2019-05-28T20:57:36.147Z,11.00
2019-05-28T21:00:08.972Z,10.90
2019-05-28T21:02:37.749Z,10.80
2019-05-28T21:05:08.186Z,10.80
2019-05-28T21:07:36.900Z,10.80
2019-05-28T21:10:08.155Z,10.70
2019-05-28T21:12:43.772Z,10.60
2019-05-28T21:15:10.766Z,10.60
2019-05-28T21:17:39.508Z,10.50
2019-05-28T21:20:08.643Z,10.50
2019-05-28T21:22:37.307Z,10.50
2019-05-28T21:25:06.705Z,10.40
2019-05-28T21:27:35.484Z,10.40
2019-05-28T21:30:06.245Z,10.30
2019-05-28T21:32:34.904Z,10.30
2019-05-28T21:35:04.346Z,10.20
2019-05-28T21:37:33.080Z,10.20
2019-05-28T21:40:02.146Z,10.10
2019-05-28T21:42:30.820Z,10.10
2019-05-28T21:45:00.153Z,10.00
2019-05-28T21:47:28.925Z,10.00
2019-05-28T21:49:59.397Z,10.00
2019-05-28T21:52:28.108Z,9.90
2019-05-28T21:54:57.207Z,9.90
2019-05-28T21:57:26.231Z,9.90
2019-05-28T21:59:55.676Z,9.80
2019-05-28T22:02:24.525Z,9.80
2019-05-28T22:04:53.083Z,9.80
2019-05-28T22:07:21.798Z,9.70
2019-05-28T22:09:50.440Z,9.70
2019-05-28T22:12:19.089Z,9.60
2019-05-28T22:14:47.637Z,9.60
2019-05-28T22:17:16.227Z,9.50
2019-05-28T22:19:44.869Z,9.50
2019-05-28T22:22:13.465Z,9.40
2019-05-28T22:24:42.031Z,9.40
2019-05-28T22:27:10.892Z,9.40
2019-05-28T22:29:39.462Z,9.30
2019-05-28T22:32:08.703Z,9.30
2019-05-28T22:34:37.259Z,9.20
2019-05-28T22:37:05.948Z,9.20
2019-05-28T22:39:34.577Z,9.10
2019-05-28T22:42:03.816Z,9.10
2019-05-28T22:44:32.519Z,9.10
2019-05-28T22:47:01.554Z,9.00
2019-05-28T22:49:30.131Z,8.90
2019-05-28T22:51:59.718Z,8.90
2019-05-28T22:54:28.745Z,8.80
2019-05-28T22:56:57.997Z,8.80
2019-05-28T22:59:26.581Z,8.70
2019-05-28T23:01:55.146Z,8.70
2019-05-28T23:04:23.725Z,8.60
2019-05-28T23:06:52.606Z,8.60
2019-05-28T23:09:21.210Z,8.50
2019-05-28T23:11:50.105Z,8.50
2019-05-28T23:14:18.978Z,8.40
2019-05-28T23:16:47.547Z,8.40
2019-05-28T23:19:16.130Z,8.30
2019-05-28T23:21:44.706Z,8.30
2019-05-28T23:24:13.290Z,8.30
2019-05-28T23:26:42.232Z,8.20
2019-05-28T23:29:11.920Z,8.20
2019-05-28T23:31:40.591Z,8.10
2019-05-28T23:34:10.236Z,8.10
2019-05-28T23:36:38.934Z,8.00
2019-05-28T23:39:08.979Z,8.00
2019-05-28T23:41:37.783Z,8.00
2019-05-28T23:44:07.482Z,8.00
2019-05-28T23:46:36.126Z,7.90
2019-05-28T23:49:04.771Z,7.90
2019-05-28T23:51:33.332Z,7.90
2019-05-28T23:54:01.919Z,7.80
2019-05-28T23:56:30.490Z,7.80
2019-05-28T23:58:59.395Z,7.80
